Time;durP1;ratioP1;P1;durP2;ratioP2;P2;SDS_P1;SDS_P2;PMS_P1;PMS_P2;Temp;Humidity;BMP_temperature;BMP_pressure;BME280_temperature;BME280_humidity;BME280_pressure;Samples;Min_cycle;Max_cycle;Signal;HPM_P1;HPM_P2
2020/12/29 00:02:01;;;;;;;1.98;1.38;;;2.40;93.70;;;;;;5044324;28;20036;-66
2020/12/29 00:04:27;;;;;;;2.20;1.30;;;2.40;94.20;;;;;;5022656;28;20046;-65
2020/12/29 00:06:55;;;;;;;1.95;1.40;;;2.40;94.10;;;;;;5026274;28;20029;-68
2020/12/29 00:09:22;;;;;;;2.05;1.40;;;2.50;93.60;;;;;;5021921;28;20351;-67
2020/12/29 00:11:49;;;;;;;2.20;1.48;;;2.40;93.60;;;;;;5034122;28;20287;-67
2020/12/29 00:14:16;;;;;;;2.15;1.40;;;2.40;94.00;;;;;;5026639;28;20049;-67
2020/12/29 00:16:42;;;;;;;1.67;1.30;;;2.30;94.40;;;;;;5035936;28;20087;-67
2020/12/29 00:19:10;;;;;;;2.13;1.38;;;2.40;93.70;;;;;;5037661;28;20025;-66
2020/12/29 00:21:36;;;;;;;1.80;1.30;;;2.50;93.30;;;;;;5029380;28;20130;-66
2020/12/29 00:24:02;;;;;;;1.58;1.23;;;2.40;93.50;;;;;;5028595;28;20037;-67
2020/12/29 00:26:28;;;;;;;2.42;1.45;;;2.50;93.30;;;;;;5030029;28;20025;-66
2020/12/29 00:28:53;;;;;;;2.40;1.20;;;2.60;92.80;;;;;;5029660;28;20025;-66
2020/12/29 00:31:20;;;;;;;2.08;1.38;;;2.60;92.90;;;;;;5032613;28;20086;-67
2020/12/29 00:33:51;;;;;;;1.67;1.20;;;2.70;92.70;;;;;;5035328;28;20033;-67
2020/12/29 00:36:18;;;;;;;1.83;1.10;;;2.70;92.50;;;;;;5042438;28;20057;-67
2020/12/29 00:38:43;;;;;;;1.85;1.15;;;2.70;92.80;;;;;;5033502;28;20033;-66
2020/12/29 00:41:11;;;;;;;1.42;1.10;;;2.80;92.30;;;;;;5032378;28;20032;-67
2020/12/29 00:43:37;;;;;;;1.95;1.13;;;2.80;92.30;;;;;;5033217;28;20044;-67
2020/12/29 00:46:16;;;;;;;1.50;1.10;;;2.80;92.20;;;;;;5035041;28;20101;-67
2020/12/29 00:48:42;;;;;;;1.67;1.00;;;2.90;92.00;;;;;;5036190;28;20025;-67
2020/12/29 00:51:14;;;;;;;1.42;1.10;;;2.90;92.20;;;;;;5035754;28;20041;-66
2020/12/29 00:53:39;;;;;;;1.15;1.00;;;2.80;92.60;;;;;;5034353;28;20025;-67
2020/12/29 00:56:06;;;;;;;1.80;1.10;;;2.80;92.70;;;;;;5041926;28;20032;-65
2020/12/29 00:58:32;;;;;;;1.00;0.90;;;2.90;92.60;;;;;;5034062;28;20296;-66
2020/12/29 01:00:58;;;;;;;1.92;1.15;;;2.90;92.30;;;;;;5033088;28;20041;-66
2020/12/29 01:03:24;;;;;;;1.25;1.00;;;2.90;91.90;;;;;;5031986;28;20049;-66
2020/12/29 01:05:51;;;;;;;1.40;1.00;;;3.00;91.60;;;;;;5029704;28;20094;-66
2020/12/29 01:08:17;;;;;;;2.03;1.10;;;2.90;91.90;;;;;;5030936;28;20033;-66
2020/12/29 01:10:43;;;;;;;1.38;1.00;;;2.90;91.90;;;;;;5030540;28;20466;-65
2020/12/29 01:13:10;;;;;;;1.30;1.00;;;3.00;91.70;;;;;;5030854;28;20025;-66
2020/12/29 01:15:35;;;;;;;1.95;1.08;;;3.00;91.90;;;;;;5033652;28;20368;-67
2020/12/29 01:18:01;;;;;;;2.85;1.15;;;2.90;91.90;;;;;;5033504;28;20033;-66
2020/12/29 01:20:27;;;;;;;2.95;1.38;;;2.90;91.90;;;;;;5028649;28;20037;-66
2020/12/29 01:22:54;;;;;;;1.48;1.10;;;2.90;92.10;;;;;;5028265;28;20469;-67
2020/12/29 01:25:20;;;;;;;1.55;1.10;;;2.90;92.20;;;;;;5027961;28;20033;-67
2020/12/29 01:27:46;;;;;;;2.33;1.20;;;2.90;92.20;;;;;;5032158;28;21343;-67
2020/12/29 01:30:13;;;;;;;1.17;1.00;;;2.80;92.40;;;;;;5028984;28;20033;-66
2020/12/29 01:32:39;;;;;;;1.63;1.00;;;2.80;92.50;;;;;;5030056;28;20033;-65
2020/12/29 01:35:06;;;;;;;1.38;1.00;;;2.80;92.80;;;;;;5028778;28;20033;-66
2020/12/29 01:37:32;;;;;;;1.10;1.00;;;2.90;92.70;;;;;;5034661;28;20038;-67
2020/12/29 01:39:58;;;;;;;1.65;1.10;;;3.00;92.40;;;;;;5031406;28;20021;-66
2020/12/29 01:42:24;;;;;;;1.52;1.00;;;3.00;92.40;;;;;;5032161;28;20119;-67
2020/12/29 01:44:49;;;;;;;1.42;1.00;;;2.90;93.10;;;;;;5032410;28;20048;-67
2020/12/29 01:47:16;;;;;;;1.10;1.00;;;2.90;93.50;;;;;;5031901;28;20032;-67
2020/12/29 01:49:47;;;;;;;1.10;1.00;;;2.90;93.70;;;;;;5037113;28;20416;-66
2020/12/29 01:52:12;;;;;;;1.35;0.95;;;2.80;94.10;;;;;;5035323;28;20041;-68
2020/12/29 01:54:40;;;;;;;1.15;1.05;;;2.80;94.20;;;;;;5037453;28;20034;-65
2020/12/29 01:57:06;;;;;;;1.33;0.95;;;2.80;94.10;;;;;;5035902;28;20025;-66
2020/12/29 01:59:35;;;;;;;1.20;0.95;;;2.80;94.30;;;;;;5035357;28;20450;-66
2020/12/29 02:02:01;;;;;;;1.67;1.10;;;2.70;94.50;;;;;;5031589;28;20034;-66
2020/12/29 02:04:27;;;;;;;1.90;0.90;;;2.70;94.70;;;;;;5031859;28;20421;-66
2020/12/29 02:06:53;;;;;;;1.10;0.90;;;2.80;94.20;;;;;;5037117;28;20030;-65
2020/12/29 02:09:19;;;;;;;0.93;0.82;;;3.00;93.10;;;;;;5034982;28;20025;-65
2020/12/29 02:11:45;;;;;;;1.48;1.05;;;3.20;92.50;;;;;;5034834;28;20021;-68
2020/12/29 02:14:11;;;;;;;1.15;0.90;;;3.20;92.60;;;;;;5035463;28;20033;-67
2020/12/29 02:16:42;;;;;;;1.63;1.00;;;3.20;92.60;;;;;;5037245;28;20036;-67
2020/12/29 02:19:08;;;;;;;3.47;2.03;;;3.10;92.70;;;;;;5037115;28;20036;-67
2020/12/29 02:21:35;;;;;;;1.35;1.00;;;3.10;92.30;;;;;;5036682;28;20120;-68
2020/12/29 02:24:05;;;;;;;1.65;1.00;;;3.10;92.20;;;;;;5036602;28;20033;-66
2020/12/29 02:26:39;;;;;;;1.23;1.13;;;3.20;91.80;;;;;;5035778;28;20026;-66
2020/12/29 02:29:06;;;;;;;1.88;1.10;;;3.30;91.50;;;;;;5038305;28;20092;-66
2020/12/29 02:31:32;;;;;;;1.30;0.98;;;3.20;92.30;;;;;;5036145;28;20087;-65
2020/12/29 02:33:58;;;;;;;2.20;1.10;;;3.10;93.60;;;;;;5033484;28;20021;-65
2020/12/29 02:36:24;;;;;;;0.90;0.90;;;2.90;95.20;;;;;;5034397;28;20030;-67
2020/12/29 02:38:49;;;;;;;1.00;0.90;;;2.60;96.80;;;;;;5033110;28;20091;-68
2020/12/29 02:41:17;;;;;;;1.30;1.00;;;2.40;97.70;;;;;;5030395;28;20060;-67
2020/12/29 02:43:44;;;;;;;4.05;1.10;;;2.30;98.00;;;;;;5031430;28;20033;-68
2020/12/29 02:46:14;;;;;;;2.55;1.00;;;2.30;98.00;;;;;;5031952;28;20525;-68
2020/12/29 02:48:39;;;;;;;1.85;1.08;;;2.40;97.70;;;;;;5031103;28;20029;-68
2020/12/29 02:51:05;;;;;;;1.77;1.02;;;2.50;97.10;;;;;;5036506;28;20330;-67
2020/12/29 02:53:34;;;;;;;2.78;1.20;;;2.50;96.70;;;;;;5032170;28;20410;-67
2020/12/29 02:55:59;;;;;;;1.02;0.93;;;2.50;96.60;;;;;;5032079;28;20048;-67
2020/12/29 02:58:25;;;;;;;1.30;1.10;;;2.60;96.30;;;;;;5036499;28;20466;-67
2020/12/29 03:00:51;;;;;;;1.42;1.00;;;2.70;95.90;;;;;;5036228;28;20111;-67
2020/12/29 03:03:19;;;;;;;1.33;1.00;;;2.80;95.30;;;;;;5035835;28;20030;-66
2020/12/29 03:05:44;;;;;;;1.00;0.90;;;2.70;95.80;;;;;;5032886;28;21352;-66
2020/12/29 03:08:10;;;;;;;1.67;1.00;;;2.80;95.30;;;;;;5030739;28;20021;-68
2020/12/29 03:10:36;;;;;;;1.17;1.00;;;2.90;94.10;;;;;;5029345;28;20040;-67
2020/12/29 03:13:02;;;;;;;0.80;0.80;;;3.00;94.30;;;;;;5030932;28;20029;-68
2020/12/29 03:15:27;;;;;;;1.20;0.90;;;3.00;94.10;;;;;;5031668;28;20426;-67
2020/12/29 03:17:56;;;;;;;2.03;1.00;;;2.90;94.90;;;;;;5030326;28;20419;-67
2020/12/29 03:20:22;;;;;;;1.55;1.00;;;2.90;94.70;;;;;;5029572;28;20064;-67
2020/12/29 03:22:47;;;;;;;0.90;0.90;;;2.90;95.50;;;;;;5030769;28;20030;-67
2020/12/29 03:25:13;;;;;;;1.23;0.98;;;2.90;95.60;;;;;;5029338;28;20037;-67
2020/12/29 03:27:38;;;;;;;2.28;1.30;;;2.80;96.00;;;;;;5032795;28;20108;-68
2020/12/29 03:30:04;;;;;;;1.90;1.10;;;2.90;95.30;;;;;;5035445;28;20021;-68
2020/12/29 03:32:30;;;;;;;1.85;1.05;;;2.90;94.70;;;;;;5035604;28;20025;-68
2020/12/29 03:34:55;;;;;;;3.25;1.13;;;2.90;94.90;;;;;;5039294;28;20418;-66
2020/12/29 03:37:21;;;;;;;1.42;1.00;;;2.90;94.50;;;;;;5036853;28;20021;-67
2020/12/29 03:39:47;;;;;;;1.52;1.15;;;3.00;94.30;;;;;;5039701;28;20026;-67
2020/12/29 03:42:12;;;;;;;1.90;1.10;;;3.00;94.10;;;;;;5028911;28;20033;-67
2020/12/29 03:44:38;;;;;;;2.90;1.10;;;3.00;93.60;;;;;;5030027;28;20437;-68
2020/12/29 03:47:04;;;;;;;0.95;0.85;;;3.00;93.50;;;;;;5030990;28;20040;-67
2020/12/29 03:49:30;;;;;;;1.52;1.00;;;3.00;93.30;;;;;;5029589;28;20384;-68
2020/12/29 03:51:55;;;;;;;2.78;1.30;;;3.00;93.30;;;;;;5031016;28;20037;-68
2020/12/29 03:54:21;;;;;;;2.65;1.35;;;2.90;93.40;;;;;;5037206;28;20029;-68
2020/12/29 03:56:47;;;;;;;2.20;1.20;;;3.00;92.80;;;;;;5030591;28;20061;-67
2020/12/29 03:59:12;;;;;;;1.00;0.90;;;3.00;92.80;;;;;;5030211;28;20308;-67
2020/12/29 04:01:38;;;;;;;1.60;1.27;;;3.10;92.30;;;;;;5029359;28;20044;-68
2020/12/29 04:04:04;;;;;;;1.63;1.00;;;3.10;92.40;;;;;;5029682;28;20653;-67
2020/12/29 04:06:29;;;;;;;1.33;1.10;;;3.00;92.10;;;;;;5029944;28;20124;-66
2020/12/29 04:08:55;;;;;;;3.72;1.20;;;3.10;91.70;;;;;;5029253;28;20438;-68
2020/12/29 04:11:21;;;;;;;1.83;1.20;;;3.00;92.10;;;;;;5030757;28;20108;-67
2020/12/29 04:13:47;;;;;;;1.13;0.93;;;3.00;92.60;;;;;;5030063;28;20643;-67
2020/12/29 04:16:12;;;;;;;2.72;1.20;;;3.00;92.60;;;;;;5028772;28;20334;-68
2020/12/29 04:18:38;;;;;;;2.72;1.13;;;3.00;92.40;;;;;;5028633;28;20030;-68
2020/12/29 04:21:04;;;;;;;1.83;1.10;;;3.10;91.60;;;;;;5028336;28;20037;-67
2020/12/29 04:23:31;;;;;;;2.13;1.08;;;3.20;91.70;;;;;;5029012;28;20044;-68
2020/12/29 04:25:57;;;;;;;2.03;1.10;;;3.10;91.90;;;;;;5028426;28;20049;-67
2020/12/29 04:28:23;;;;;;;1.42;1.10;;;3.10;92.50;;;;;;5030153;28;20386;-68
2020/12/29 04:30:49;;;;;;;2.47;1.00;;;3.00;93.40;;;;;;5029136;28;20033;-67
2020/12/29 04:33:15;;;;;;;1.60;1.08;;;2.90;94.70;;;;;;5030490;28;20032;-68
2020/12/29 04:35:40;;;;;;;2.38;1.17;;;2.70;95.90;;;;;;5030217;28;20322;-66
2020/12/29 04:38:06;;;;;;;1.95;1.20;;;2.60;96.70;;;;;;5029624;28;20329;-68
2020/12/29 04:40:32;;;;;;;1.23;1.10;;;2.50;97.00;;;;;;5027369;28;20040;-67
2020/12/29 04:42:58;;;;;;;3.50;1.60;;;2.40;97.70;;;;;;5030143;28;20025;-68
2020/12/29 04:45:25;;;;;;;1.17;0.98;;;2.30;98.00;;;;;;5028839;28;20370;-68
2020/12/29 04:47:52;;;;;;;1.02;0.90;;;2.20;98.00;;;;;;5028577;28;21586;-67
2020/12/29 04:50:18;;;;;;;1.65;1.20;;;2.10;98.00;;;;;;5029134;28;20021;-68
2020/12/29 04:52:46;;;;;;;1.30;1.00;;;2.10;98.00;;;;;;5029060;28;20036;-67
2020/12/29 04:55:12;;;;;;;1.00;0.90;;;2.00;98.00;;;;;;5027820;28;20037;-67
2020/12/29 04:57:43;;;;;;;1.50;1.10;;;2.10;98.00;;;;;;5029125;28;20351;-69
2020/12/29 05:00:08;;;;;;;1.38;1.08;;;2.20;98.00;;;;;;5027490;28;20033;-68
2020/12/29 05:02:34;;;;;;;1.05;0.95;;;2.20;98.00;;;;;;5029637;28;20033;-68
2020/12/29 05:04:59;;;;;;;1.95;1.30;;;2.20;98.00;;;;;;5028111;28;20430;-68
2020/12/29 05:07:29;;;;;;;2.00;1.08;;;2.20;98.00;;;;;;5029521;28;20033;-67
2020/12/29 05:10:03;;;;;;;3.78;1.23;;;2.50;96.60;;;;;;5028668;28;20030;-68
2020/12/29 05:12:30;;;;;;;2.78;1.33;;;2.50;96.10;;;;;;5036404;28;20029;-67
2020/12/29 05:14:56;;;;;;;2.60;1.30;;;2.50;96.10;;;;;;5035358;28;20327;-68
2020/12/29 05:17:22;;;;;;;2.10;1.25;;;2.60;95.50;;;;;;5036019;28;20026;-68
2020/12/29 05:19:48;;;;;;;1.40;1.20;;;2.70;94.90;;;;;;5034212;28;20033;-69
2020/12/29 05:22:14;;;;;;;1.70;1.10;;;2.70;94.70;;;;;;5036676;28;20082;-67
2020/12/29 05:24:48;;;;;;;2.88;1.35;;;2.70;94.60;;;;;;5039982;28;20428;-67
2020/12/29 05:27:15;;;;;;;5.35;1.30;;;2.70;94.40;;;;;;5034444;28;20414;-66
2020/12/29 05:29:41;;;;;;;4.05;1.30;;;2.70;94.20;;;;;;5036165;28;20091;-67
2020/12/29 05:32:17;;;;;;;3.55;1.30;;;2.80;93.60;;;;;;5034809;28;20026;-69
2020/12/29 05:34:43;;;;;;;2.53;1.27;;;2.80;93.30;;;;;;5035666;28;20026;-69
2020/12/29 05:37:15;;;;;;;1.75;1.10;;;2.90;92.30;;;;;;5036056;28;20025;-68
2020/12/29 05:39:41;;;;;;;3.17;1.20;;;3.00;91.80;;;;;;5034499;28;20338;-68
2020/12/29 05:42:07;;;;;;;3.00;1.40;;;3.20;91.00;;;;;;5034245;28;20033;-67
2020/12/29 05:44:35;;;;;;;2.65;1.20;;;3.20;90.60;;;;;;5034418;28;20095;-68
2020/12/29 05:47:03;;;;;;;2.05;0.98;;;3.20;90.70;;;;;;5033952;28;20022;-68
2020/12/29 05:49:31;;;;;;;2.55;1.10;;;3.30;90.30;;;;;;5035162;28;20103;-69
2020/12/29 05:51:58;;;;;;;1.38;0.95;;;3.20;90.60;;;;;;5035553;28;20526;-68
2020/12/29 05:54:25;;;;;;;3.00;1.27;;;3.20;90.40;;;;;;5035851;28;20048;-67
2020/12/29 05:56:51;;;;;;;2.33;1.30;;;3.30;90.70;;;;;;5034189;28;20446;-69
2020/12/29 05:59:20;;;;;;;1.70;1.17;;;3.20;91.10;;;;;;5035568;28;20096;-67
2020/12/29 06:01:48;;;;;;;2.85;1.10;;;3.10;91.60;;;;;;5035909;28;20041;-68
2020/12/29 06:04:14;;;;;;;2.55;1.15;;;3.20;91.30;;;;;;5035562;28;20034;-68
2020/12/29 06:06:43;;;;;;;4.50;1.13;;;3.20;91.10;;;;;;5035061;28;20032;-68
2020/12/29 06:09:11;;;;;;;3.70;1.13;;;3.40;90.00;;;;;;5035297;28;20116;-68
2020/12/29 06:11:59;;;;;;;2.67;1.10;;;3.30;89.90;;;;;;5034485;28;20033;-67
2020/12/29 06:14:26;;;;;;;2.45;1.08;;;3.40;89.40;;;;;;5034095;28;20105;-68
2020/12/29 06:16:53;;;;;;;2.00;1.13;;;3.40;89.50;;;;;;5035429;28;20608;-67
2020/12/29 06:19:30;;;;;;;2.28;1.10;;;3.40;88.90;;;;;;5034182;28;20026;-69
2020/12/29 06:22:09;;;;;;;1.92;1.15;;;3.30;89.40;;;;;;5031860;28;20037;-69
2020/12/29 06:24:45;;;;;;;2.45;1.13;;;3.30;88.90;;;;;;5031058;28;20125;-68
2020/12/29 06:27:12;;;;;;;1.40;1.00;;;3.30;89.00;;;;;;5030106;28;20051;-67
2020/12/29 06:29:39;;;;;;;4.72;1.63;;;3.30;89.20;;;;;;5032528;28;20022;-68
2020/12/29 06:32:22;;;;;;;2.20;1.10;;;3.40;89.30;;;;;;5031341;28;20087;-68
2020/12/29 06:34:48;;;;;;;4.72;1.40;;;3.30;89.60;;;;;;5031387;28;20068;-67
2020/12/29 06:37:25;;;;;;;2.20;1.15;;;3.30;89.70;;;;;;5032490;28;20072;-67
2020/12/29 06:40:01;;;;;;;4.07;1.23;;;3.30;89.00;;;;;;5030211;28;20032;-69
2020/12/29 06:42:28;;;;;;;2.75;1.23;;;3.40;88.30;;;;;;5030837;28;20035;-69
2020/12/29 06:44:58;;;;;;;1.48;0.95;;;3.40;88.40;;;;;;5030971;28;20044;-68
2020/12/29 06:47:27;;;;;;;1.67;1.10;;;3.40;88.20;;;;;;5031275;28;20288;-68
2020/12/29 06:49:53;;;;;;;3.22;1.35;;;3.40;88.00;;;;;;5031496;28;20025;-68
2020/12/29 06:52:25;;;;;;;2.50;1.13;;;3.40;88.40;;;;;;5030916;28;20037;-68
2020/12/29 06:54:57;;;;;;;2.10;1.10;;;3.40;88.20;;;;;;5030587;28;20025;-68
2020/12/29 06:57:35;;;;;;;1.17;1.00;;;3.50;87.90;;;;;;5031614;28;20104;-68
2020/12/29 07:00:07;;;;;;;1.45;1.00;;;3.50;87.90;;;;;;5032487;28;20033;-68
2020/12/29 07:02:38;;;;;;;3.03;1.30;;;3.50;87.80;;;;;;5032296;28;20029;-68
2020/12/29 07:05:16;;;;;;;2.70;1.17;;;3.40;88.30;;;;;;5031519;28;20107;-69
2020/12/29 07:08:03;;;;;;;2.85;1.25;;;3.40;87.80;;;;;;5032766;28;20099;-69
2020/12/29 07:10:47;;;;;;;2.67;1.10;;;3.50;87.70;;;;;;5028913;28;20033;-68
2020/12/29 07:13:14;;;;;;;3.55;1.77;;;3.50;87.90;;;;;;5031396;28;20033;-68
2020/12/29 07:15:47;;;;;;;2.45;1.00;;;3.50;87.50;;;;;;5029543;28;20037;-69
2020/12/29 07:18:17;;;;;;;1.98;1.15;;;3.50;87.90;;;;;;5030958;28;20021;-69
2020/12/29 07:20:51;;;;;;;3.20;1.10;;;3.50;87.80;;;;;;5030584;28;20030;-68
2020/12/29 07:23:25;;;;;;;1.38;1.02;;;3.50;87.90;;;;;;5030987;28;20425;-68
2020/12/29 07:25:52;;;;;;;1.77;1.00;;;3.50;88.50;;;;;;5030379;28;20034;-69
2020/12/29 07:28:22;;;;;;;3.42;1.10;;;3.40;89.00;;;;;;5030365;28;20021;-69
2020/12/29 07:30:50;;;;;;;3.08;1.20;;;3.30;89.10;;;;;;5030698;28;20075;-68
2020/12/29 07:33:22;;;;;;;1.88;1.08;;;3.40;89.40;;;;;;5030168;28;20029;-68
2020/12/29 07:35:51;;;;;;;3.83;1.10;;;3.40;89.20;;;;;;5031295;28;20429;-68
2020/12/29 07:38:25;;;;;;;2.22;0.93;;;3.40;89.40;;;;;;5031002;28;20110;-69
2020/12/29 07:40:53;;;;;;;2.70;1.10;;;3.40;89.00;;;;;;5029287;28;20025;-68
2020/12/29 07:43:19;;;;;;;1.10;0.90;;;3.40;89.20;;;;;;5029226;28;20334;-68
2020/12/29 07:45:45;;;;;;;1.95;1.00;;;3.40;89.60;;;;;;5031097;28;20033;-69
2020/12/29 07:48:10;;;;;;;2.45;1.10;;;3.40;89.80;;;;;;5030369;28;20018;-69
2020/12/29 07:50:38;;;;;;;2.33;1.40;;;3.30;89.90;;;;;;5029680;28;20038;-68
2020/12/29 07:53:11;;;;;;;1.67;1.23;;;3.30;90.00;;;;;;5030032;28;20029;-69
2020/12/29 07:55:40;;;;;;;2.10;1.03;;;3.30;90.20;;;;;;5029053;28;20057;-69
2020/12/29 07:58:08;;;;;;;1.52;1.10;;;3.30;90.50;;;;;;5030746;28;20055;-69
2020/12/29 08:00:35;;;;;;;1.35;1.00;;;3.20;91.00;;;;;;5029654;28;20037;-68
2020/12/29 08:03:01;;;;;;;1.73;1.30;;;3.10;91.70;;;;;;5028232;28;20044;-68
2020/12/29 08:05:29;;;;;;;1.55;1.00;;;3.10;92.20;;;;;;5030497;28;20038;-68
2020/12/29 08:07:59;;;;;;;3.17;1.80;;;3.10;92.50;;;;;;5030257;28;20079;-69
2020/12/29 08:10:26;;;;;;;2.00;1.20;;;3.10;92.60;;;;;;5028957;28;20033;-68
2020/12/29 08:13:00;;;;;;;2.45;1.25;;;3.20;92.10;;;;;;5030631;28;20053;-70
2020/12/29 08:15:32;;;;;;;3.15;1.48;;;3.20;91.40;;;;;;5029755;28;20429;-68
2020/12/29 08:18:18;;;;;;;1.65;0.95;;;3.30;91.20;;;;;;5029620;28;20601;-68
2020/12/29 08:21:00;;;;;;;2.90;1.40;;;3.30;91.20;;;;;;5051423;28;20367;-69
2020/12/29 08:23:27;;;;;;;1.83;1.10;;;3.30;91.30;;;;;;5028743;28;20045;-69
2020/12/29 08:26:03;;;;;;;2.28;1.40;;;3.30;91.10;;;;;;5026736;28;20768;-70
2020/12/29 08:28:33;;;;;;;2.10;1.20;;;3.30;91.10;;;;;;5029279;28;20025;-70
2020/12/29 08:31:03;;;;;;;3.72;1.33;;;3.30;90.60;;;;;;5030346;28;20031;-68
2020/12/29 08:33:29;;;;;;;3.25;1.70;;;3.30;90.60;;;;;;5029574;28;20042;-69
2020/12/29 08:35:58;;;;;;;2.88;1.20;;;3.40;90.70;;;;;;5029311;28;20140;-69
2020/12/29 08:38:28;;;;;;;1.60;1.15;;;3.40;90.80;;;;;;5029166;28;20120;-69
2020/12/29 08:41:28;;;;;;;2.63;1.25;;;3.50;90.10;;;;;;5026792;28;20345;-69
2020/12/29 08:43:59;;;;;;;1.70;1.10;;;3.50;90.10;;;;;;5024317;28;20041;-69
2020/12/29 08:46:26;;;;;;;6.38;1.30;;;3.50;90.20;;;;;;5027201;28;20353;-70
2020/12/29 08:49:00;;;;;;;1.42;1.10;;;3.50;90.00;;;;;;5026949;28;20056;-70
2020/12/29 08:51:29;;;;;;;;;;;3.50;90.40;;;;;;5028507;28;20449;-70
2020/12/29 08:54:21;;;;;;;3.85;2.05;;;3.50;90.60;;;;;;5028315;28;19944;-69
2020/12/29 08:57:00;;;;;;;5.63;2.22;;;3.60;90.40;;;;;;5025123;28;20497;-69
2020/12/29 08:59:33;;;;;;;2.55;1.20;;;3.60;91.10;;;;;;5028176;28;20056;-70
2020/12/29 09:02:04;;;;;;;2.93;1.47;;;3.60;91.10;;;;;;5028709;28;20021;-70
2020/12/29 09:04:40;;;;;;;2.88;1.33;;;3.60;90.70;;;;;;5028735;28;20063;-70
2020/12/29 09:07:15;;;;;;;2.25;1.20;;;3.70;91.40;;;;;;5028220;28;20053;-70
2020/12/29 09:09:53;;;;;;;3.00;1.90;;;3.70;90.80;;;;;;5029578;28;20086;-69
2020/12/29 09:12:21;;;;;;;2.25;1.10;;;3.80;90.40;;;;;;5028354;28;20523;-69
2020/12/29 09:14:55;;;;;;;2.28;1.30;;;3.70;90.60;;;;;;5025429;28;20033;-69
2020/12/29 09:17:31;;;;;;;;;;;3.80;90.80;;;;;;5028126;28;20095;-69
2020/12/29 09:20:21;;;;;;;1.95;1.40;;;3.90;90.90;;;;;;5027283;28;20309;-69
2020/12/29 09:22:51;;;;;;;2.67;1.48;;;3.90;90.60;;;;;;5028205;28;20039;-68
2020/12/29 09:25:23;;;;;;;1.20;1.00;;;3.80;90.00;;;;;;5028483;28;20037;-69
2020/12/29 09:27:50;;;;;;;2.40;1.20;;;3.80;89.90;;;;;;5027664;28;20104;-70
2020/12/29 09:30:18;;;;;;;2.10;1.30;;;3.80;90.40;;;;;;5026822;28;20033;-69
2020/12/29 09:32:44;;;;;;;1.48;1.02;;;3.80;90.00;;;;;;5031996;28;20272;-70
2020/12/29 09:35:28;;;;;;;2.38;1.23;;;3.90;90.00;;;;;;5031025;28;20025;-70
2020/12/29 09:37:58;;;;;;;2.67;1.15;;;4.00;89.90;;;;;;5025566;28;20037;-69
2020/12/29 09:40:26;;;;;;;2.00;1.27;;;4.10;88.90;;;;;;5024004;28;20044;-69
2020/12/29 09:42:52;;;;;;;2.72;1.10;;;4.10;88.40;;;;;;5027137;28;20040;-69
2020/12/29 09:45:24;;;;;;;3.63;1.67;;;4.10;89.00;;;;;;5028656;28;20108;-69
2020/12/29 09:47:50;;;;;;;2.53;1.27;;;4.10;88.80;;;;;;5028671;28;20037;-70
2020/12/29 09:50:17;;;;;;;4.38;1.73;;;4.10;89.10;;;;;;5029925;28;20156;-68
2020/12/29 09:52:43;;;;;;;2.03;1.23;;;4.10;88.90;;;;;;5025603;28;20353;-68
2020/12/29 09:55:09;;;;;;;1.80;1.20;;;4.10;89.00;;;;;;5019997;28;20199;-68
2020/12/29 09:57:34;;;;;;;3.25;1.30;;;4.00;88.90;;;;;;5040977;28;20083;-67
2020/12/29 10:00:05;;;;;;;2.65;1.25;;;4.10;88.70;;;;;;5036793;28;20037;-68
2020/12/29 10:02:30;;;;;;;2.08;1.27;;;4.10;88.80;;;;;;5022854;28;20033;-69
2020/12/29 10:04:56;;;;;;;3.20;1.70;;;3.90;90.00;;;;;;5037117;28;20032;-69
2020/12/29 10:07:25;;;;;;;5.50;2.67;;;3.70;92.10;;;;;;5031394;28;20029;-71
2020/12/29 10:09:51;;;;;;;4.10;2.03;;;3.30;96.60;;;;;;5038024;28;20050;-68
2020/12/29 10:12:17;;;;;;;5.88;1.88;;;2.80;98.00;;;;;;5035447;28;20026;-69
2020/12/29 10:14:43;;;;;;;7.03;3.45;;;2.40;98.00;;;;;;5031760;28;20033;-68
2020/12/29 10:17:09;;;;;;;14.27;3.47;;;2.10;98.00;;;;;;5036049;28;20029;-68
2020/12/29 10:19:34;;;;;;;6.25;3.58;;;2.00;98.00;;;;;;5038181;28;20338;-69
2020/12/29 10:22:03;;;;;;;6.70;3.65;;;2.00;98.00;;;;;;5036745;28;20030;-69
2020/12/29 10:24:29;;;;;;;11.02;5.65;;;2.00;98.00;;;;;;5030643;28;20330;-69
2020/12/29 10:26:56;;;;;;;4.07;2.20;;;2.10;98.00;;;;;;5019492;28;20026;-69
2020/12/29 10:29:22;;;;;;;5.22;2.38;;;2.20;98.00;;;;;;5035846;28;20025;-68
2020/12/29 10:31:48;;;;;;;3.55;2.00;;;2.40;98.00;;;;;;5046057;28;20025;-70
2020/12/29 10:34:15;;;;;;;4.32;1.70;;;2.60;98.00;;;;;;5029358;28;20032;-69
2020/12/29 10:36:41;;;;;;;3.13;1.85;;;2.70;98.00;;;;;;5049802;28;20017;-68
2020/12/29 10:39:08;;;;;;;3.30;1.77;;;2.60;98.00;;;;;;5034216;28;20112;-69
2020/12/29 10:41:36;;;;;;;4.20;2.08;;;2.80;98.00;;;;;;5033426;28;20288;-68
2020/12/29 10:44:03;;;;;;;4.35;2.33;;;2.90;98.00;;;;;;5028033;28;20439;-70
2020/12/29 10:46:29;;;;;;;5.22;2.47;;;3.00;98.00;;;;;;5037832;28;20040;-68
2020/12/29 10:48:54;;;;;;;3.90;2.40;;;3.00;98.00;;;;;;5017702;28;20026;-69
2020/12/29 10:51:22;;;;;;;4.28;2.40;;;3.00;98.00;;;;;;5044090;28;20049;-70
2020/12/29 10:53:49;;;;;;;6.35;2.75;;;3.00;98.00;;;;;;5028975;28;20056;-68
2020/12/29 10:56:14;;;;;;;3.63;1.75;;;2.90;98.00;;;;;;5026733;28;20382;-69
2020/12/29 10:58:44;;;;;;;6.35;3.67;;;2.90;98.00;;;;;;5030224;28;20030;-69
2020/12/29 11:01:19;;;;;;;5.13;2.60;;;2.70;98.00;;;;;;5030394;28;20033;-69
2020/12/29 11:03:45;;;;;;;7.32;4.30;;;2.80;98.00;;;;;;5036666;28;20029;-69
2020/12/29 11:06:15;;;;;;;6.28;3.53;;;2.90;98.00;;;;;;5035099;28;20326;-69
2020/12/29 11:08:41;;;;;;;7.43;4.72;;;3.00;98.00;;;;;;5035899;28;20598;-69
2020/12/29 11:11:07;;;;;;;7.45;4.38;;;3.10;98.00;;;;;;5027026;28;20021;-70
2020/12/29 11:13:32;;;;;;;8.90;5.55;;;3.20;98.00;;;;;;5032931;28;20048;-70
2020/12/29 11:15:58;;;;;;;8.27;4.55;;;3.20;98.00;;;;;;5032244;28;20029;-69
2020/12/29 11:18:24;;;;;;;5.45;3.83;;;3.20;98.00;;;;;;5034556;28;20025;-69
2020/12/29 11:20:51;;;;;;;5.00;2.55;;;3.30;98.00;;;;;;5035774;28;20112;-69
2020/12/29 11:23:16;;;;;;;9.73;4.93;;;3.20;98.00;;;;;;5027903;28;20117;-68
2020/12/29 11:25:42;;;;;;;11.02;5.30;;;3.20;97.30;;;;;;5031917;28;20373;-69
2020/12/29 11:28:08;;;;;;;8.65;4.65;;;3.20;97.50;;;;;;5033697;28;20025;-69
2020/12/29 11:30:36;;;;;;;6.85;2.90;;;3.30;98.00;;;;;;5036002;28;20028;-68
2020/12/29 11:33:01;;;;;;;9.45;3.35;;;3.30;97.10;;;;;;5033289;28;20030;-68
2020/12/29 11:35:27;;;;;;;4.53;2.47;;;3.30;96.10;;;;;;5035504;28;20056;-68
2020/12/29 11:37:52;;;;;;;4.70;2.53;;;3.40;97.50;;;;;;5031669;28;20039;-69
2020/12/29 11:40:21;;;;;;;5.03;2.22;;;3.50;96.60;;;;;;5034324;28;20091;-69
2020/12/29 11:42:46;;;;;;;4.60;2.50;;;3.60;96.60;;;;;;5032809;28;20079;-70
2020/12/29 11:45:12;;;;;;;3.42;2.17;;;3.70;95.70;;;;;;5026859;28;20030;-70
2020/12/29 11:47:41;;;;;;;7.22;2.55;;;3.90;95.40;;;;;;5035388;28;20021;-68
2020/12/29 11:50:07;;;;;;;7.88;2.92;;;4.30;94.30;;;;;;5032148;28;20053;-69
2020/12/29 11:52:32;;;;;;;7.40;2.90;;;4.40;93.30;;;;;;5034860;28;20025;-70
2020/12/29 11:55:00;;;;;;;3.33;1.50;;;4.50;92.50;;;;;;5042300;28;20369;-70
2020/12/29 11:57:26;;;;;;;4.43;2.10;;;4.40;90.40;;;;;;5032770;28;20033;-69
2020/12/29 11:59:51;;;;;;;4.38;2.10;;;4.30;91.30;;;;;;5022073;28;20029;-69
2020/12/29 12:02:17;;;;;;;2.97;1.52;;;4.20;90.70;;;;;;5036376;28;20112;-70
2020/12/29 12:04:42;;;;;;;1.92;1.13;;;4.20;90.60;;;;;;5036031;28;20485;-69
2020/12/29 12:07:11;;;;;;;4.30;2.15;;;4.20;89.50;;;;;;5035613;28;20021;-69
2020/12/29 12:09:40;;;;;;;3.50;1.60;;;4.30;88.70;;;;;;5034284;28;20030;-70
2020/12/29 12:12:06;;;;;;;3.92;1.20;;;4.70;87.70;;;;;;5027448;28;20028;-70
2020/12/29 12:14:32;;;;;;;5.70;2.38;;;4.90;85.40;;;;;;5034262;28;20053;-68
2020/12/29 12:17:01;;;;;;;3.67;1.83;;;5.20;83.90;;;;;;5031962;28;20056;-70
2020/12/29 12:19:26;;;;;;;4.00;1.98;;;5.50;84.00;;;;;;5035743;28;20056;-70
2020/12/29 12:21:52;;;;;;;4.40;1.35;;;6.20;82.00;;;;;;5025500;28;20057;-69
2020/12/29 12:24:17;;;;;;;3.85;1.80;;;6.00;80.20;;;;;;5033283;28;20071;-70
2020/12/29 12:26:43;;;;;;;4.05;1.70;;;5.60;81.70;;;;;;5024269;28;20433;-69
2020/12/29 12:29:09;;;;;;;4.28;2.50;;;5.10;82.00;;;;;;5026082;28;20096;-70
2020/12/29 12:31:35;;;;;;;4.53;1.92;;;5.00;82.80;;;;;;5027694;28;20027;-70
2020/12/29 12:34:05;;;;;;;3.97;2.05;;;4.90;82.90;;;;;;5035921;28;20029;-69
2020/12/29 12:36:31;;;;;;;2.30;1.15;;;4.70;84.20;;;;;;5034133;28;20030;-69
2020/12/29 12:39:00;;;;;;;5.70;2.55;;;4.50;84.10;;;;;;5032342;28;20083;-69
2020/12/29 12:41:25;;;;;;;4.90;2.63;;;4.60;84.80;;;;;;5024898;28;20091;-69
2020/12/29 12:43:54;;;;;;;3.33;1.40;;;4.70;84.60;;;;;;5027713;28;20055;-67
2020/12/29 12:46:26;;;;;;;7.20;1.50;;;4.70;83.70;;;;;;5034741;28;20318;-67
2020/12/29 12:48:51;;;;;;;3.40;1.42;;;4.40;84.10;;;;;;5033427;28;20063;-68
2020/12/29 12:51:17;;;;;;;5.00;2.10;;;4.40;85.30;;;;;;5023622;28;20049;-68
2020/12/29 12:53:46;;;;;;;3.40;1.80;;;4.40;85.20;;;;;;5031693;28;20047;-67
2020/12/29 12:56:13;;;;;;;4.82;1.67;;;4.40;84.90;;;;;;5025607;28;20041;-70
2020/12/29 12:58:39;;;;;;;2.22;1.25;;;4.50;84.70;;;;;;5028777;28;20488;-68
2020/12/29 13:01:05;;;;;;;4.57;1.73;;;4.50;84.60;;;;;;5016514;28;20041;-68
2020/12/29 13:03:34;;;;;;;2.55;1.42;;;4.60;84.80;;;;;;5051465;28;20025;-68